Latest Weather Observations for Hobart

IDT60901

Issued at 2:01 pm EDT Monday 8 March 2021 (issued every 10 minutes, with the page automatically refreshed every 10 minutes)

About weather observations | Map of Hobart area stations | Latest observations for Hobart area | Other Formats
Station Details ID: 094029 Name: HOBART (ELLERSLIE ROAD) Lat: -42.89 Lon: 147.33 Height: 50.5 m
Data from the previous 72 hours. | See also: Recent months at Hobart
Date/Time
EDT
Temp
°C
App
Temp
°C
Dew
Point
°C
Rel
Hum
%
Delta-T
°C
Wind Press
QNH
hPa
Press
MSL
hPa
Rain since
9am
mm
Dir  Spd
km/h
Gust
km/h
Spd
kts
Gust
kts
08/02:00pm 18.0 15.7 11.6 66 3.5 SE 15 20 8 11 1008.9 1008.9 0.0
08/01:30pm 18.0 15.9 11.3 65 3.7 ESE 13 17 7 9 1009.1 1009.1 0.0
08/01:00pm 18.3 16.5 9.6 57 4.6 SE 9 13 5 7 1009.4 1009.4 0.0
08/12:30pm 17.9 16.1 10.8 63 3.8 SE 11 15 6 8 1009.7 1009.7 0.0
08/12:00pm 19.0 16.7 10.6 58 4.5 ESE 13 17 7 9 1010.0 1010.0 0.0
08/11:30am 18.4 16.6 10.8 61 4.1 ENE 11 15 6 8 1010.5 1010.4 0.0
08/11:00am 18.1 17.3 11.2 64 3.8 N 6 11 3 6 1010.7 1010.6 0.0
08/10:30am 17.3 16.1 11.6 69 3.1 NW 9 11 5 6 1011.0 1010.9 0.0
08/10:00am 16.4 15.3 12.0 75 2.4 NNE 9 13 5 7 1010.9 1010.8 0.0
08/09:30am 16.4 15.6 11.6 73 2.6 N 7 11 4 6 1011.0 1010.9 0.0
08/09:00am 15.9 14.8 11.9 77 2.2 NNW 9 11 5 6 1011.1 1011.0 0.0
08/08:30am 14.7 15.2 11.5 81 1.7 CALM 0 2 0 1 1011.0 1010.9 0.0
08/08:00am 14.0 13.2 11.2 83 1.5 W 6 9 3 5 1010.8 1010.7 0.0
08/07:30am 13.7 12.9 10.9 83 1.5 W 6 9 3 5 1010.5 1010.4 0.0
08/07:00am 13.5 12.1 10.9 84 1.4 W 9 11 5 6 1010.1 1010.1 0.0
08/06:30am 13.7 12.8 11.2 85 1.3 WSW 7 9 4 5 1009.8 1009.8 0.0
08/06:00am 13.7 12.8 11.2 85 1.3 WSW 7 9 4 5 1009.7 1009.7 0.0
08/05:30am 13.6 12.3 11.1 85 1.3 W 9 9 5 5 1009.7 1009.7 0.0
08/05:00am 13.6 12.3 11.3 86 1.2 WSW 9 11 5 6 1009.7 1009.7 0.0
08/04:30am 14.1 14.5 11.3 83 1.5 CALM 0 0 0 0 1009.6 1009.6 0.0
08/04:00am 14.5 14.2 11.5 82 1.6 E 4 7 2 4 1010.0 1010.0 0.0
08/03:30am 14.6 15.0 11.4 81 1.7 CALM 0 6 0 3 1010.2 1010.2 0.0
08/03:00am 14.8 14.5 11.4 80 1.8 WNW 4 7 2 4 1010.4 1010.3 0.0
08/02:30am 14.8 15.2 11.4 80 1.8 CALM 0 0 0 0 1010.6 1010.5 0.0
08/02:00am 14.9 14.0 11.5 80 1.8 SSW 7 11 4 6 1010.6 1010.5 0.0
08/01:30am 14.9 13.7 11.5 80 1.8 SSW 9 13 5 7 1010.9 1010.8 0.0
08/01:00am 15.0 14.7 11.4 79 1.9 SW 4 9 2 5 1011.0 1010.9 0.0
08/12:30am 15.1 14.2 11.5 79 1.9 SSW 7 11 4 6 1011.1 1011.0 0.0
08/12:00am 15.1 13.8 11.3 78 2.0 SSE 9 13 5 7 1011.2 1011.1 0.0
 
Date/Time
EDT
Temp
°C
App
Temp
°C
Dew
Point
°C
Rel
Hum
%
Delta-T
°C
Wind Press
QNH
hPa
Press
MSL
hPa
Rain since
9am
mm
Dir  Spd
km/h
Gust
km/h
Spd
kts
Gust
kts
07/11:30pm 15.0 14.1 11.4 79 1.9 SSW 7 11 4 6 1011.4 1011.3 0.0
07/11:00pm 15.1 14.2 11.3 78 2.0 SSW 7 11 4 6 1011.6 1011.5 0.0
07/10:30pm 15.2 13.9 11.2 77 2.1 SSE 9 13 5 7 1011.7 1011.6 0.0
07/10:00pm 15.2 13.4 10.8 75 2.3 S 11 17 6 9 1011.7 1011.6 0.0
07/09:30pm 15.2 13.0 10.8 75 2.3 S 13 20 7 11 1011.6 1011.5 0.0
07/09:00pm 15.1 12.9 10.9 76 2.2 S 13 19 7 10 1011.4 1011.3 0.0
07/08:30pm 15.2 12.6 10.8 75 2.3 S 15 20 8 11 1011.4 1011.3 0.0
07/08:00pm 15.1 11.7 10.7 75 2.3 S 19 24 10 13 1010.7 1010.6 0.0
07/07:30pm 15.2 11.6 10.6 74 2.4 SSE 20 28 11 15 1010.6 1010.5 0.0
07/07:00pm 15.4 12.8 10.6 73 2.5 SSE 15 20 8 11 1010.5 1010.4 0.0
07/06:30pm 15.8 12.7 10.3 70 2.9 SE 17 24 9 13 1010.2 1010.2 0.0
07/06:00pm 16.6 13.3 10.9 69 3.1 SE 19 28 10 15 1010.1 1010.1 0.0
07/05:30pm 16.3 13.2 10.4 68 3.1 SSE 17 22 9 12 1009.9 1009.9 0.0
07/05:00pm 16.0 12.3 10.3 69 3.0 SE 20 28 11 15 1009.7 1009.7 0.0
07/04:30pm 16.3 12.9 10.6 69 3.0 ESE 19 24 10 13 1010.0 1010.0 0.0
07/04:00pm 16.3 13.2 10.2 67 3.2 SE 17 24 9 13 1010.1 1010.1 0.0
07/03:30pm 17.4 13.7 10.3 63 3.8 SE 20 30 11 16 1010.0 1010.0 0.0
07/03:00pm 17.7 13.2 10.1 61 4.0 SE 24 30 13 16 1010.1 1010.1 0.0
07/02:30pm 18.9 14.9 10.5 58 4.5 SE 22 30 12 16 1010.4 1010.3 0.0
07/02:00pm 18.5 15.2 9.6 56 4.7 ESE 17 20 9 11 1010.7 1010.6 0.0
07/01:30pm 17.5 14.3 8.4 55 4.7 ESE 15 19 8 10 1011.0 1010.9 0.0
07/01:00pm 17.3 14.5 8.4 56 4.6 SE 13 17 7 9 1011.4 1011.3 0.0
07/12:30pm 17.5 14.6 8.1 54 4.8 ESE 13 17 7 9 1011.6 1011.5 0.0
07/12:00pm 18.3 16.1 9.4 56 4.7 ENE 11 15 6 8 1011.8 1011.7 0.0
07/11:30am 17.1 15.4 8.3 56 4.5 NE 7 13 4 7 1012.2 1012.1 0.0
07/11:00am 16.1 13.2 8.3 60 4.0 NNW 13 19 7 10 1012.2 1012.1 0.0
07/10:30am 16.5 14.4 8.2 58 4.2 N 9 13 5 7 1012.4 1012.3 0.0
07/10:00am 15.1 11.6 8.8 66 3.2 NNW 17 22 9 12 1012.6 1012.5 0.0
07/09:30am 13.4 10.9 8.3 71 2.5 NNW 11 17 6 9 1012.5 1012.4 0.0
07/09:00am 12.9 10.9 8.6 75 2.2 NW 9 15 5 8 1012.7 1012.6 0.0
07/08:30am 11.9 9.8 8.4 79 1.7 NW 9 15 5 8 1012.9 1012.8 0.0
07/08:00am 11.2 8.7 8.2 82 1.5 NNW 11 17 6 9 1012.8 1012.7 0.0
07/07:30am 10.9 8.0 8.1 83 1.4 NW 13 19 7 10 1012.9 1012.8 0.0
07/07:00am 10.1 8.3 7.3 83 1.3 WNW 6 11 3 6 1012.7 1012.6 0.0
07/06:30am 10.2 8.0 7.8 85 1.2 NNW 9 13 5 7 1012.5 1012.4 0.0
07/06:00am 9.8 8.0 7.2 84 1.2 NW 6 9 3 5 1012.5 1012.4 0.0
07/05:30am 10.0 8.3 7.6 85 1.2 NW 6 7 3 4 1012.6 1012.5 0.0
07/05:00am 9.9 7.9 7.3 84 1.2 WSW 7 9 4 5 1012.7 1012.6 0.0
07/04:30am 10.4 8.1 7.6 83 1.3 NNW 9 13 5 7 1012.8 1012.7 0.0
07/04:00am 10.8 9.1 7.7 81 1.5 NNW 6 7 3 4 1013.2 1013.1 0.0
07/03:30am 11.1 8.5 7.6 79 1.7 NNW 11 13 6 7 1013.4 1013.3 0.0
07/03:00am 11.2 9.5 7.5 78 1.8 N 6 7 3 4 1013.5 1013.4 0.0
07/02:30am 11.6 9.4 7.7 77 1.9 NNW 9 13 5 7 1013.8 1013.7 0.0
07/02:00am 11.3 9.0 7.6 78 1.8 NNW 9 15 5 8 1014.3 1014.2 0.0
07/01:30am 10.9 9.2 7.6 80 1.6 N 6 9 3 5 1014.5 1014.4 0.0
07/01:00am 10.7 8.8 7.4 80 1.6 NW 7 7 4 4 1014.8 1014.7 0.0
07/12:30am 11.0 8.8 7.7 80 1.6 NW 9 11 5 6 1015.2 1015.1 0.0
07/12:00am 11.2 8.9 7.3 77 1.9 W 9 11 5 6 1015.4 1015.3 0.0
 
Date/Time
EDT
Temp
°C
App
Temp
°C
Dew
Point
°C
Rel
Hum
%
Delta-T
°C
Wind Press
QNH
hPa
Press
MSL
hPa
Rain since
9am
mm
Dir  Spd
km/h
Gust
km/h
Spd
kts
Gust
kts
06/11:30pm 12.2 9.2 7.9 75 2.1 WSW 13 17 7 9 1015.9 1015.8 0.0
06/11:00pm 12.1 9.1 7.8 75 2.1 WSW 13 17 7 9 1016.1 1016.0 0.0
06/10:30pm 12.2 10.0 7.7 74 2.2 SW 9 11 5 6 1016.0 1015.9 0.0
06/10:00pm 12.5 10.6 7.6 72 2.4 WSW 7 9 4 5 1015.8 1015.7 0.0
06/09:30pm 13.1 10.9 7.8 70 2.6 SW 9 11 5 6 1015.6 1015.5 0.0
06/09:00pm 13.4 11.1 7.6 68 2.8 S 9 13 5 7 1015.4 1015.3 0.0
06/08:30pm 13.5 11.2 7.5 67 2.9 SSE 9 13 5 7 1015.0 1014.9 0.0
06/08:00pm 13.8 11.1 7.3 65 3.2 SE 11 15 6 8 1015.1 1015.0 0.0
06/07:30pm 13.9 10.8 7.2 64 3.3 SSE 13 19 7 10 1015.1 1015.0 0.0
06/07:00pm 14.4 10.5 7.0 61 3.6 SE 17 24 9 13 1014.9 1014.8 0.0
06/06:30pm 14.8 10.5 7.1 60 3.8 SSE 19 26 10 14 1014.9 1014.8 0.0
06/06:00pm 15.0 10.1 7.1 59 3.9 SSE 22 32 12 17 1014.8 1014.7 0.0
06/05:30pm 15.3 10.1 7.3 59 4.0 SE 24 32 13 17 1014.7 1014.6 0.0
06/05:00pm 15.6 10.4 7.1 57 4.2 SE 24 32 13 17 1014.8 1014.7 0.0
06/04:30pm 15.9 10.3 7.1 56 4.4 SE 26 37 14 20 1014.5 1014.4 0.0
06/04:00pm 16.6 11.0 8.6 59 4.1 ESE 28 39 15 21 1014.4 1014.3 0.0
06/03:30pm 16.4 9.8 7.9 57 4.3 ESE 32 41 17 22 1014.2 1014.1 0.0
06/03:00pm 16.3 10.7 7.3 55 4.5 SE 26 33 14 18 1014.5 1014.4 0.0
06/02:30pm 17.3 12.6 5.3 45 5.8 SSE 19 28 10 15 1014.6 1014.5 0.0
06/02:00pm 17.7 13.0 5.0 43 6.1 S 19 30 10 16 1014.9 1014.8 0.0
06/01:30pm 18.1 13.7 5.0 42 6.3 SW 17 28 9 15 1015.1 1015.0 0.0
06/01:00pm 17.1 12.2 5.1 45 5.7 WSW 20 37 11 20 1015.2 1015.1 0.0
06/12:30pm 17.0 11.8 5.3 46 5.6 SW 22 35 12 19 1015.5 1015.4 0.0
06/12:00pm 16.5 11.9 5.5 48 5.3 SSW 19 30 10 16 1015.7 1015.6 0.0
06/11:30am 14.5 9.6 5.3 54 4.3 WSW 20 32 11 17 1015.9 1015.8 0.0
06/11:00am 14.1 9.9 5.5 56 4.1 SW 17 26 9 14 1015.9 1015.8 0.0
06/10:30am 13.8 9.9 5.4 57 4.0 SW 15 24 8 13 1015.9 1015.8 0.0
06/10:00am 13.2 9.0 5.6 60 3.6 SW 17 35 9 19 1015.6 1015.5 0.0
06/09:30am 12.8 8.9 5.5 61 3.4 SW 15 24 8 13 1015.4 1015.3 0.0
06/09:00am 12.7 9.2 5.4 61 3.4 SSW 13 24 7 13 1015.2 1015.1 0.0
06/08:30am 12.4 9.6 5.3 62 3.3 SSW 9 24 5 13 1015.3 1015.2 0.0
06/08:00am 12.0 9.6 5.2 63 3.1 SE 7 11 4 6 1014.9 1014.8 0.0
06/07:30am 11.8 8.2 5.0 63 3.1 SSW 13 28 7 15 1014.8 1014.7 0.0
06/07:00am 11.8 8.2 5.0 63 3.1 S 13 19 7 10 1014.5 1014.4 0.0
06/06:30am 11.8 7.4 4.8 62 3.2 SW 17 24 9 13 1014.3 1014.2 0.0
06/06:00am 11.6 7.2 4.6 62 3.2 SSW 17 28 9 15 1014.3 1014.2 0.0
06/05:30am 11.7 8.8 4.7 62 3.2 WSW 9 17 5 9 1014.1 1014.0 0.0
06/05:00am 11.6 7.2 4.6 62 3.2 SW 17 28 9 15 1013.9 1013.8 0.0
06/04:30am 11.5 8.3 4.9 64 3.0 SSW 11 26 6 14 1014.1 1014.0 0.0
06/04:00am 11.4 8.9 4.8 64 3.0 S 7 13 4 7 1014.2 1014.1 0.0
06/03:30am 11.5 8.2 4.7 63 3.1 SSW 11 22 6 12 1014.1 1014.0 0.0
06/03:00am 11.3 7.6 4.7 64 3.0 SSW 13 20 7 11 1014.3 1014.2 0.0
06/02:30am 11.4 7.3 4.6 63 3.1 S 15 24 8 13 1014.3 1014.2 0.0
06/02:00am 11.5 6.5 4.5 62 3.2 SW 20 30 11 16 1014.5 1014.4 0.0
06/01:30am 11.6 7.8 4.1 60 3.4 SSW 13 20 7 11 1014.6 1014.5 0.0
06/01:00am 11.7 8.3 4.0 59 3.5 SSE 11 20 6 11 1014.7 1014.6 0.0
06/12:30am 11.9 7.0 3.9 58 3.6 SSW 19 30 10 16 1014.6 1014.5 0.0
06/12:00am 12.0 7.0 3.8 57 3.7 SSW 19 30 10 16 1014.5 1014.4 0.0
 
Date/Time
EDT
Temp
°C
App
Temp
°C
Dew
Point
°C
Rel
Hum
%
Delta-T
°C
Wind Press
QNH
hPa
Press
MSL
hPa
Rain since
9am
mm
Dir  Spd
km/h
Gust
km/h
Spd
kts
Gust
kts
05/11:30pm 11.9 7.3 3.7 57 3.7 SW 17 28 9 15 1014.7 1014.6 0.0
05/11:00pm 12.0 8.6 3.8 57 3.7 SSW 11 20 6 11 1014.8 1014.7 0.0
05/10:30pm 12.0 9.4 4.0 58 3.6 S 7 17 4 9 1014.9 1014.8 0.0
05/10:00pm 12.0 7.5 4.0 58 3.6 SW 17 30 9 16 1014.6 1014.5 0.0
05/09:30pm 12.0 9.0 4.0 58 3.6 SSW 9 20 5 11 1014.5 1014.4 0.0
05/09:00pm 12.1 7.4 3.3 55 3.9 SW 17 32 9 17 1014.2 1014.1 0.0
05/08:30pm 12.2 6.9 2.9 53 4.1 SW 20 33 11 18 1014.1 1014.0 0.0
05/08:00pm 12.4 8.0 2.8 52 4.2 SW 15 35 8 19 1014.0 1013.9 0.0
05/07:30pm 12.7 7.4 3.1 52 4.3 SW 20 35 11 19 1013.6 1013.5 0.0
05/07:02pm 12.9 6.0 2.7 50 4.5 SW 28 46 15 25 1013.2 1013.1 0.0
05/07:00pm 13.0 6.1 2.8 50 4.5 SW 28 43 15 23 1013.1 1013.0 0.0
05/06:30pm 13.3 6.8 2.8 49 4.7 SSW 26 44 14 24 1013.0 1012.9 0.0
05/06:15pm 13.5 6.3 3.0 49 4.7 SSW 30 52 16 28 1012.9 1012.8 0.0
05/06:00pm 13.7 6.0 2.3 46 5.0 SSW 32 46 17 25 1012.6 1012.5 0.0
05/05:47pm 14.2 7.3 2.5 45 5.2 SSW 28 46 15 25 1012.5 1012.4 0.0
05/05:30pm 14.3 6.9 1.9 43 5.4 SSW 30 44 16 24 1012.3 1012.2 0.0
05/05:22pm 14.5 7.5 1.8 42 5.6 SSW 28 50 15 27 1012.3 1012.2 0.0
05/05:00pm 14.5 7.2 2.7 45 5.3 SSW 30 44 16 24 1012.1 1012.0 0.0
05/04:33pm 15.0 8.2 2.9 44 5.4 SSW 28 48 15 26 1011.9 1011.8 0.0
05/04:30pm 15.6 9.6 3.1 43 5.7 SSW 24 43 13 23 1012.0 1011.9 0.0
05/04:00pm 15.1 8.3 3.3 45 5.4 SSW 28 44 15 24 1012.1 1012.0 0.0
05/03:31pm 15.3 8.5 3.1 44 5.5 SW 28 48 15 26 1011.9 1011.8 0.0
05/03:30pm 15.8 9.4 3.3 43 5.7 SW 26 44 14 24 1012.0 1011.9 0.0
05/03:03pm 14.8 6.8 3.6 47 5.1 SW 35 54 19 29 1012.1 1012.0 0.0
05/03:00pm 15.0 7.3 3.5 46 5.2 SW 33 52 18 28 1012.1 1012.0 0.0
05/02:30pm 14.6 8.0 4.0 49 4.9 SSW 28 48 15 26 1012.0 1011.9 0.0

Latest Capital City Observations: Canberra | Sydney | Melbourne | Brisbane | Adelaide | Perth | Hobart | Darwin

Other formats

Comma delimited format used in spreadsheet applications
http://www.bom.gov.au/fwo/IDT60901/IDT60901.94970.axf

JavaScript Object Notation format (JSON) in row-major order
http://www.bom.gov.au/fwo/IDT60901/IDT60901.94970.json

Data quality

Most of these data are generated automatically and are frequently updated. Quality checks on data are not normally performed. It is possible for incorrect values to appear. Refer to information at About Latest Weather Observations and please check the disclaimer before using these data.